createdAt,value
2018-02-06T00:04:06.414Z,82.50
2018-02-06T00:06:34.035Z,83.20
2018-02-06T00:09:01.663Z,85.80
2018-02-06T00:11:29.381Z,86.20
2018-02-06T00:13:57.553Z,85.00
2018-02-06T00:16:25.204Z,85.40
2018-02-06T00:18:52.933Z,85.20
2018-02-06T00:21:20.589Z,84.50
2018-02-06T00:23:48.896Z,84.40
2018-02-06T00:26:16.557Z,85.70
2018-02-06T00:28:47.859Z,86.00
2018-02-06T00:31:15.467Z,86.50
2018-02-06T00:33:43.211Z,86.00
2018-02-06T00:36:10.858Z,84.20
2018-02-06T00:38:39.680Z,84.30
2018-02-06T00:41:07.376Z,84.50
2018-02-06T00:43:35.014Z,84.60
2018-02-06T00:46:02.715Z,84.30
2018-02-06T00:48:30.780Z,83.50
2018-02-06T00:50:58.808Z,83.90
2018-02-06T00:53:26.429Z,86.20
2018-02-06T00:55:54.120Z,86.60
2018-02-06T00:58:21.751Z,86.80
2018-02-06T01:00:52.054Z,86.50
2018-02-06T01:03:20.416Z,87.40
2018-02-06T01:05:48.053Z,87.10
2018-02-06T01:08:17.541Z,85.90
2018-02-06T01:10:47.466Z,86.60
2018-02-06T01:13:15.135Z,87.10
2018-02-06T01:18:21.921Z,85.40
2018-02-06T01:20:49.561Z,86.20
2018-02-06T01:23:17.188Z,86.40
2018-02-06T01:25:44.906Z,85.90
2018-02-06T01:28:15.675Z,85.70
2018-02-06T01:35:40.152Z,86.30
2018-02-06T01:38:07.771Z,85.10
2018-02-06T01:40:35.485Z,85.50
2018-02-06T01:43:03.175Z,84.90
2018-02-06T01:45:30.814Z,85.70
2018-02-06T01:47:58.495Z,85.70
2018-02-06T01:50:26.145Z,85.80
2018-02-06T01:52:53.769Z,86.60
2018-02-06T01:55:21.467Z,87.00
2018-02-06T01:57:49.106Z,88.30
2018-02-06T02:00:18.286Z,88.80
2018-02-06T02:02:45.985Z,89.00
2018-02-06T02:05:13.693Z,89.10
2018-02-06T02:07:41.309Z,89.00
2018-02-06T02:10:09.012Z,89.30
2018-02-06T02:12:36.650Z,88.70
2018-02-06T02:15:04.305Z,88.50
2018-02-06T02:17:32.016Z,88.20
2018-02-06T02:19:59.640Z,89.30
2018-02-06T02:22:27.273Z,89.10
2018-02-06T02:24:55.012Z,88.40
2018-02-06T02:27:22.841Z,89.50
2018-02-06T02:29:50.389Z,88.60
2018-02-06T02:35:02.997Z,87.50
2018-02-06T02:37:30.657Z,86.40
2018-02-06T02:39:58.304Z,84.90
2018-02-06T04:38:39.628Z,90.60
2018-02-06T04:41:08.311Z,90.00
2018-02-06T04:46:03.581Z,88.80
2018-02-06T04:48:31.236Z,89.30
2018-02-06T04:50:58.853Z,89.30
2018-02-06T04:53:26.536Z,88.90
2018-02-06T04:55:54.241Z,88.50
2018-02-06T05:00:49.538Z,87.70
2018-02-06T05:03:17.185Z,87.30
2018-02-06T05:05:44.880Z,87.30
2018-02-06T05:13:19.724Z,88.30
2018-02-06T05:15:47.886Z,87.70
2018-02-06T05:18:15.525Z,87.20
2018-02-06T05:20:43.268Z,87.60
2018-02-06T05:23:11.272Z,88.00
2018-02-06T05:25:38.896Z,88.30
2018-02-06T05:28:07.018Z,88.30
2018-02-06T05:30:39.067Z,88.30
2018-02-06T05:33:07.660Z,88.40
2018-02-06T05:35:35.309Z,88.00
2018-02-06T05:38:02.962Z,87.30
2018-02-06T05:40:31.464Z,87.40
2018-02-06T05:42:59.092Z,87.00
2018-02-06T05:47:54.438Z,88.20
2018-02-06T05:50:22.095Z,87.40
2018-02-06T05:52:49.749Z,87.60
2018-02-06T05:57:49.322Z,87.70
2018-02-06T06:00:16.984Z,87.20
2018-02-06T06:02:44.725Z,90.80
2018-02-06T06:05:12.367Z,93.50
2018-02-06T06:07:41.822Z,89.60
2018-02-06T06:10:08.239Z,88.30
2018-02-06T06:12:36.950Z,87.20
2018-02-06T06:15:04.703Z,87.70
2018-02-06T06:17:32.310Z,88.30
2018-02-06T06:20:00.012Z,88.00
2018-02-06T06:22:28.018Z,88.60
2018-02-06T06:24:55.718Z,89.30
2018-02-06T06:27:23.416Z,88.90
2018-02-06T06:32:24.985Z,89.90
2018-02-06T06:34:52.849Z,90.00
2018-02-06T06:40:02.158Z,89.10
2018-02-06T06:42:27.174Z,89.40
2018-02-06T06:44:54.825Z,89.10
2018-02-06T06:47:22.527Z,88.70
2018-02-06T06:49:52.560Z,88.90
2018-02-06T06:52:20.492Z,89.00
2018-02-06T06:54:48.201Z,89.00
2018-02-06T06:57:20.429Z,88.80
2018-02-06T06:59:47.890Z,89.30
2018-02-06T07:02:17.054Z,90.10
2018-02-06T07:04:44.682Z,90.20
2018-02-06T07:07:13.063Z,89.60
2018-02-06T07:09:40.747Z,90.30
2018-02-06T07:12:08.385Z,90.70
2018-02-06T07:14:36.980Z,88.80
2018-02-06T07:17:04.660Z,89.60
2018-02-06T07:19:32.308Z,90.50
2018-02-06T07:21:59.926Z,90.90
2018-02-06T07:24:30.440Z,91.30
2018-02-06T07:26:55.312Z,90.80
2018-02-06T07:29:22.952Z,90.30
2018-02-06T07:31:50.634Z,89.40
2018-02-06T07:34:19.268Z,89.60
2018-02-06T07:36:46.928Z,90.00
2018-02-06T07:39:14.608Z,90.20
2018-02-06T07:41:42.282Z,90.20
2018-02-06T07:44:10.408Z,89.90
2018-02-06T07:46:38.103Z,89.90
2018-02-06T07:49:06.972Z,90.20
2018-02-06T07:51:35.459Z,90.50
2018-02-06T07:54:03.159Z,90.50
2018-02-06T07:56:31.682Z,90.50
2018-02-06T07:58:59.316Z,89.40
2018-02-06T08:04:06.111Z,89.70
2018-02-06T08:06:33.836Z,87.00
2018-02-06T08:09:01.471Z,86.70
2018-02-06T08:11:30.095Z,87.70
2018-02-06T08:13:57.762Z,87.10
2018-02-06T08:16:26.336Z,84.80
2018-02-06T08:18:53.999Z,83.20
2018-02-06T08:21:21.689Z,82.90
2018-02-06T08:23:50.178Z,82.30
2018-02-06T08:26:19.835Z,82.50
2018-02-06T08:28:47.544Z,79.90
2018-02-06T08:31:15.197Z,79.90
2018-02-06T08:36:11.492Z,83.20
2018-02-06T08:38:39.147Z,84.80
2018-02-06T08:41:07.852Z,81.50
2018-02-06T08:43:35.527Z,82.30
2018-02-06T08:46:03.193Z,80.60
2018-02-06T08:48:30.831Z,86.80
2018-02-06T08:50:59.400Z,77.40
2018-02-06T08:53:27.057Z,75.60
2018-02-06T08:55:54.998Z,79.00
2018-02-06T08:58:22.690Z,77.90
2018-02-06T09:00:50.620Z,77.00
2018-02-06T09:03:18.322Z,77.30
2018-02-06T09:05:46.000Z,76.20
2018-02-06T09:08:14.473Z,75.00
2018-02-06T09:10:42.968Z,73.90
2018-02-06T09:13:11.042Z,76.40
2018-02-06T09:15:38.717Z,75.90
2018-02-06T09:18:07.320Z,74.30
2018-02-06T09:20:35.001Z,76.50
2018-02-06T09:23:03.569Z,75.00
2018-02-06T09:25:31.222Z,74.10
2018-02-06T09:30:40.952Z,72.20
2018-02-06T09:33:09.399Z,71.10
2018-02-06T09:35:38.076Z,73.70
2018-02-06T09:38:05.699Z,71.70
2018-02-06T09:40:33.413Z,70.70
2018-02-06T09:43:01.036Z,69.00
2018-02-06T09:45:28.664Z,73.00
2018-02-06T09:50:24.002Z,67.20
2018-02-06T09:52:52.297Z,62.50
2018-02-06T09:55:20.041Z,64.10
2018-02-06T09:57:48.528Z,60.40
2018-02-06T10:00:17.149Z,57.60
2018-02-06T10:02:44.844Z,60.10
2018-02-06T10:07:40.121Z,58.80
2018-02-06T10:10:07.831Z,61.30
2018-02-06T10:15:03.986Z,59.40
2018-02-06T10:19:59.334Z,57.20
2018-02-06T10:22:27.903Z,60.00
2018-02-06T10:24:55.991Z,59.10
2018-02-06T10:27:24.479Z,59.40
2018-02-06T10:29:52.112Z,55.00
2018-02-06T10:32:19.809Z,56.60
2018-02-06T10:34:47.419Z,53.20
2018-02-06T10:37:15.096Z,53.60
2018-02-06T10:39:42.785Z,54.50
2018-02-06T10:42:10.414Z,53.50
2018-02-06T10:44:38.900Z,53.00
2018-02-06T10:47:07.577Z,53.50
2018-02-06T10:49:35.211Z,53.90
2018-02-06T10:57:12.336Z,53.60
2018-02-06T10:59:41.008Z,52.80
2018-02-06T11:02:09.610Z,51.80
2018-02-06T11:04:37.218Z,54.70
2018-02-06T11:07:05.859Z,52.80
2018-02-06T11:09:33.485Z,52.00
2018-02-06T11:12:01.108Z,48.70
2018-02-06T11:14:29.717Z,49.20
2018-02-06T11:16:57.416Z,48.70
2018-02-06T11:19:25.066Z,48.30
2018-02-06T11:21:52.774Z,50.10
2018-02-06T11:24:20.416Z,50.70
2018-02-06T11:26:49.746Z,50.20
2018-02-06T11:29:17.438Z,49.50
2018-02-06T11:34:15.344Z,48.80
2018-02-06T11:36:43.040Z,51.40
2018-02-06T11:39:10.723Z,47.90
2018-02-06T11:41:38.385Z,46.20
2018-02-06T11:44:06.875Z,47.70
2018-02-06T11:46:34.503Z,51.80
2018-02-06T11:49:02.107Z,46.30
2018-02-06T11:51:29.824Z,49.50
2018-02-06T11:53:57.441Z,45.70
2018-02-06T11:56:25.045Z,45.30
2018-02-06T11:58:52.764Z,43.70
2018-02-06T12:01:20.407Z,47.30
2018-02-06T12:03:48.046Z,44.70
2018-02-06T12:06:19.797Z,43.60
2018-02-06T12:08:47.407Z,44.10
2018-02-06T12:11:15.932Z,44.80
2018-02-06T12:13:43.646Z,45.60
2018-02-06T12:16:11.287Z,45.00
2018-02-06T12:21:21.262Z,46.00
2018-02-06T12:23:48.907Z,39.50
2018-02-06T12:26:16.797Z,43.40
2018-02-06T12:28:44.519Z,41.70
2018-02-06T12:31:12.248Z,40.90
2018-02-06T12:33:39.876Z,43.40
2018-02-06T12:36:07.638Z,39.30
2018-02-06T12:38:35.264Z,43.80
2018-02-06T12:43:31.575Z,39.00
2018-02-06T12:45:59.146Z,40.00
2018-02-06T12:48:27.033Z,42.30
2018-02-06T12:50:54.728Z,39.60
2018-02-06T12:53:22.376Z,37.30
2018-02-06T12:55:49.990Z,36.00
2018-02-06T12:58:18.511Z,37.50
2018-02-06T13:00:46.161Z,37.00
2018-02-06T13:03:14.587Z,37.50
2018-02-06T13:08:14.940Z,35.90
2018-02-06T13:10:42.630Z,36.30
2018-02-06T13:13:11.093Z,35.10
2018-02-06T13:15:38.732Z,34.70
2018-02-06T13:18:06.453Z,35.90
2018-02-06T13:20:34.099Z,36.90
2018-02-06T13:23:01.724Z,35.10
2018-02-06T13:25:29.461Z,35.90
2018-02-06T13:27:57.065Z,36.00
2018-02-06T13:30:25.444Z,33.80
2018-02-06T13:32:53.153Z,32.40
2018-02-06T13:35:20.790Z,33.50
2018-02-06T13:37:48.438Z,37.20
2018-02-06T13:40:16.148Z,37.30
2018-02-06T13:47:50.544Z,36.20
2018-02-06T13:50:18.440Z,34.70
2018-02-06T13:52:46.977Z,34.20
2018-02-06T13:55:15.424Z,35.40
2018-02-06T13:57:45.821Z,35.50
2018-02-06T14:00:13.799Z,35.30
2018-02-06T14:02:42.670Z,34.70
2018-02-06T14:05:11.193Z,34.40
2018-02-06T14:07:39.214Z,35.20
2018-02-06T14:10:06.834Z,34.70
2018-02-06T14:12:34.478Z,36.20
2018-02-06T14:15:02.184Z,35.90
2018-02-06T14:17:29.828Z,36.00
2018-02-06T14:19:57.465Z,34.70
2018-02-06T14:22:25.160Z,36.60
2018-02-06T14:24:53.373Z,36.80
2018-02-06T14:27:21.034Z,35.20
2018-02-06T14:29:49.532Z,34.50
2018-02-06T14:32:17.148Z,35.30
2018-02-06T14:34:44.759Z,34.40
2018-02-06T14:37:12.460Z,34.20
2018-02-06T14:42:09.485Z,35.60
2018-02-06T14:44:37.625Z,35.70
2018-02-06T14:47:05.265Z,35.80
2018-02-06T14:52:00.605Z,35.20
2018-02-06T14:54:28.254Z,34.80
2018-02-06T14:56:55.860Z,35.50
2018-02-06T14:59:24.539Z,36.60
2018-02-06T15:01:53.047Z,36.90
2018-02-06T15:04:21.494Z,36.70
2018-02-06T15:06:50.132Z,37.30
2018-02-06T15:14:24.565Z,35.20
2018-02-06T15:16:53.148Z,36.10
2018-02-06T15:19:21.745Z,36.50
2018-02-06T15:21:51.176Z,36.70
2018-02-06T15:24:18.786Z,35.70
2018-02-06T15:29:15.034Z,38.00
2018-02-06T15:31:42.641Z,36.70
2018-02-06T15:34:12.742Z,37.60
2018-02-06T15:36:40.450Z,37.70
2018-02-06T15:39:08.095Z,37.80
2018-02-06T15:41:35.694Z,37.30
2018-02-06T15:44:03.397Z,37.20
2018-02-06T15:46:31.030Z,39.00
2018-02-06T15:51:26.367Z,38.70
2018-02-06T15:53:54.007Z,39.30
2018-02-06T15:58:49.336Z,37.20
2018-02-06T16:03:57.621Z,37.80
2018-02-06T16:06:25.254Z,38.10
2018-02-06T16:08:52.905Z,37.50
2018-02-06T16:11:21.334Z,38.40
2018-02-06T16:13:48.867Z,38.50
2018-02-06T16:16:16.581Z,37.90
2018-02-06T16:18:45.234Z,37.90
2018-02-06T16:21:12.894Z,38.70
2018-02-06T16:23:41.338Z,38.50
2018-02-06T16:26:09.058Z,37.90
2018-02-06T16:28:36.680Z,38.90
2018-02-06T16:31:05.183Z,39.40
2018-02-06T16:33:33.071Z,39.40
2018-02-06T16:36:00.675Z,40.20
2018-02-06T16:38:28.293Z,38.60
2018-02-06T16:40:56.026Z,40.40
2018-02-06T16:43:23.979Z,39.90
2018-02-06T16:45:51.912Z,40.70
2018-02-06T16:48:19.599Z,40.30
2018-02-06T16:50:47.868Z,40.80
2018-02-06T16:53:16.409Z,40.90
2018-02-06T16:55:44.095Z,41.50
2018-02-06T17:00:51.517Z,42.00
2018-02-06T17:03:19.140Z,41.00
2018-02-06T17:05:46.757Z,39.50
2018-02-06T17:08:14.497Z,40.80
2018-02-06T17:10:42.152Z,38.90
2018-02-06T17:13:09.806Z,38.60
2018-02-06T17:15:37.572Z,38.50
2018-02-06T17:18:06.116Z,39.00
2018-02-06T17:20:34.625Z,38.50
2018-02-06T17:23:02.395Z,38.70
2018-02-06T17:25:30.064Z,38.60
2018-02-06T17:27:58.165Z,38.30
2018-02-06T17:30:25.867Z,39.00
2018-02-06T17:32:53.547Z,40.00
2018-02-06T17:35:21.162Z,40.10
2018-02-06T17:37:48.886Z,48.30
2018-02-06T17:40:16.532Z,49.70
2018-02-06T17:42:44.736Z,48.10
2018-02-06T17:45:13.307Z,46.10
2018-02-06T17:47:41.004Z,54.00
2018-02-06T17:52:36.364Z,53.00
2018-02-06T17:55:04.012Z,54.80
2018-02-06T17:57:32.982Z,54.30
2018-02-06T18:00:00.678Z,53.70
2018-02-06T18:02:28.322Z,56.90
2018-02-06T18:04:55.987Z,58.90
2018-02-06T18:07:23.698Z,58.60
2018-02-06T18:12:19.788Z,58.20
2018-02-06T18:14:47.486Z,56.80
2018-02-06T18:17:15.141Z,54.20
2018-02-06T18:19:42.788Z,60.10
2018-02-06T18:24:49.592Z,61.30
2018-02-06T18:27:17.735Z,64.60
2018-02-06T18:29:45.388Z,63.80
2018-02-06T18:32:13.064Z,64.60
2018-02-06T18:34:40.805Z,65.10
2018-02-06T18:37:09.430Z,62.70
2018-02-06T18:39:37.131Z,60.50
2018-02-06T18:42:04.829Z,64.10
2018-02-06T18:44:32.523Z,66.00
2018-02-06T18:47:00.154Z,64.90
2018-02-06T18:49:27.838Z,65.70
2018-02-06T18:51:57.232Z,67.00
2018-02-06T18:54:25.686Z,66.60
2018-02-06T18:56:53.423Z,67.90
2018-02-06T18:59:21.250Z,69.40
2018-02-06T19:01:48.886Z,68.30
2018-02-06T19:04:16.599Z,68.10
2018-02-06T19:09:11.861Z,69.80
2018-02-06T19:11:40.109Z,73.80
2018-02-06T19:14:08.731Z,71.10
2018-02-06T19:16:36.439Z,71.00
2018-02-06T19:19:04.050Z,70.50
2018-02-06T19:21:31.686Z,69.90
2018-02-06T19:23:59.360Z,69.40
2018-02-06T19:26:27.049Z,69.90
2018-02-06T19:28:54.689Z,68.40
2018-02-06T19:31:22.429Z,68.40
2018-02-06T19:33:50.094Z,67.20
2018-02-06T19:36:18.837Z,67.20
2018-02-06T19:38:46.383Z,69.00
2018-02-06T19:41:14.086Z,69.90
2018-02-06T19:43:41.737Z,71.10
2018-02-06T19:48:50.805Z,73.10
2018-02-06T19:51:18.625Z,72.70
2018-02-06T19:53:46.300Z,71.70
2018-02-06T19:56:13.972Z,71.90
2018-02-06T19:58:41.633Z,72.90
2018-02-06T20:01:09.309Z,73.70
2018-02-06T20:03:37.021Z,73.10
2018-02-06T20:06:04.667Z,74.10
2018-02-06T20:08:32.314Z,73.00
2018-02-06T20:11:03.726Z,72.40
2018-02-06T20:13:31.398Z,71.90
2018-02-06T20:15:59.046Z,74.10
2018-02-06T20:18:26.783Z,76.20
2018-02-06T20:20:54.423Z,76.30
2018-02-06T20:23:22.054Z,76.10
2018-02-06T20:25:50.086Z,75.80
2018-02-06T20:28:17.724Z,73.90
2018-02-06T20:30:45.333Z,73.80
2018-02-06T20:33:13.047Z,72.60
2018-02-06T20:35:40.672Z,72.40
2018-02-06T20:38:08.376Z,72.50
2018-02-06T20:43:03.716Z,73.50
2018-02-06T20:45:31.368Z,72.90
2018-02-06T20:50:27.500Z,74.00
2018-02-06T20:52:55.149Z,74.80
2018-02-06T20:55:22.840Z,74.90
2018-02-06T20:57:50.925Z,73.60
2018-02-06T21:00:18.567Z,72.40
2018-02-06T21:02:46.273Z,74.20
2018-02-06T21:05:13.924Z,74.50
2018-02-06T21:10:22.797Z,77.20
2018-02-06T21:15:18.074Z,75.30
2018-02-06T21:17:45.804Z,75.80
2018-02-06T21:20:13.451Z,76.90
2018-02-06T21:22:41.348Z,76.30
2018-02-06T21:25:08.924Z,76.80
2018-02-06T21:27:36.588Z,75.40
2018-02-06T21:30:04.222Z,76.40
2018-02-06T21:32:31.928Z,75.80
2018-02-06T21:34:59.557Z,76.50
2018-02-06T21:37:27.228Z,76.50
2018-02-06T21:39:55.280Z,76.40
2018-02-06T21:42:22.933Z,75.70
2018-02-06T21:44:50.564Z,75.30
2018-02-06T21:47:19.111Z,75.40
2018-02-06T21:49:46.686Z,75.30
2018-02-06T21:52:14.455Z,74.80
2018-02-06T21:57:13.976Z,74.50
2018-02-06T21:59:41.597Z,74.10
2018-02-06T22:02:09.439Z,74.50
2018-02-06T22:07:04.814Z,77.70
2018-02-06T22:09:32.474Z,78.00
2018-02-06T22:12:01.469Z,77.80
2018-02-06T22:14:29.740Z,78.20
2018-02-06T22:16:57.661Z,79.50
2018-02-06T22:19:25.209Z,79.70
2018-02-06T22:21:53.406Z,79.60
2018-02-06T22:24:21.752Z,81.20
2018-02-06T22:26:49.327Z,82.90
2018-02-06T22:29:17.218Z,82.30
2018-02-06T22:31:44.933Z,83.10
2018-02-06T22:34:12.574Z,82.00
2018-02-06T22:39:19.469Z,83.30
2018-02-06T22:41:47.076Z,87.00
2018-02-06T22:44:14.726Z,84.40
2018-02-06T22:46:42.445Z,88.70
2018-02-06T22:49:10.094Z,85.00
2018-02-06T22:51:41.229Z,83.90
2018-02-06T22:54:07.511Z,85.60
2018-02-06T22:56:35.216Z,84.80
2018-02-06T22:59:02.866Z,83.40
2018-02-06T23:01:30.675Z,82.50
2018-02-06T23:03:58.355Z,82.90
2018-02-06T23:09:07.695Z,83.80
2018-02-06T23:14:10.666Z,81.60
2018-02-06T23:16:38.316Z,81.60
2018-02-06T23:19:06.913Z,84.20
2018-02-06T23:21:35.705Z,85.80
2018-02-06T23:24:03.322Z,85.00
2018-02-06T23:26:32.181Z,84.50
2018-02-06T23:28:59.884Z,83.40
2018-02-06T23:31:27.567Z,82.00
2018-02-06T23:33:55.193Z,81.40
2018-02-06T23:36:22.913Z,83.50
2018-02-06T23:38:50.555Z,83.40
2018-02-06T23:41:18.200Z,82.70
2018-02-06T23:43:45.897Z,81.10
2018-02-06T23:46:13.549Z,80.10
2018-02-06T23:51:13.519Z,83.40
2018-02-06T23:53:41.150Z,85.20
2018-02-06T23:56:08.802Z,85.90
2018-02-06T23:58:36.517Z,86.90
